Time;durP1;ratioP1;P1;durP2;ratioP2;P2;SDS_P1;SDS_P2;PMS_P1;PMS_P2;Temp;Humidity;BMP_temperature;BMP_pressure;BME280_temperature;BME280_humidity;BME280_pressure;Samples;Min_cycle;Max_cycle;Signal;HPM_P1;HPM_P2
2022/10/22 00:00:07;;;;;;;21.15;13.60;;;;;;;;;;5156052;27;20014;-73
2022/10/22 00:02:52;;;;;;;23.13;13.43;;;;;;;;;;5156432;27;20033;-74
2022/10/22 00:05:38;;;;;;;22.73;13.20;;;;;;;;;;5156026;27;20023;-74
2022/10/22 00:08:23;;;;;;;22.08;13.45;;;;;;;;;;5155855;27;20091;-75
2022/10/22 00:11:11;;;;;;;26.15;14.07;;;;;;;;;;5155974;27;20109;-74
2022/10/22 00:13:56;;;;;;;30.80;13.35;;;;;;;;;;5154265;27;20022;-73
2022/10/22 00:16:42;;;;;;;22.63;12.95;;;;;;;;;;5155733;27;20095;-74
2022/10/22 00:19:27;;;;;;;26.00;13.80;;;;;;;;;;5155393;27;20019;-74
2022/10/22 00:22:13;;;;;;;22.30;13.23;;;;;;;;;;5154876;27;20098;-74
2022/10/22 00:24:58;;;;;;;20.73;12.45;;;;;;;;;;5152501;27;20007;-73
2022/10/22 00:27:44;;;;;;;26.73;13.38;;;;;;;;;;5164286;27;20023;-73
2022/10/22 00:30:30;;;;;;;21.77;13.02;;;;;;;;;;5155601;27;20033;-74
2022/10/22 00:33:15;;;;;;;25.13;13.70;;;;;;;;;;5154972;27;20026;-73
2022/10/22 00:36:01;;;;;;;29.77;14.35;;;;;;;;;;5155027;27;20019;-74
2022/10/22 00:38:46;;;;;;;26.48;13.63;;;;;;;;;;5114512;28;20035;-73
2022/10/22 00:41:32;;;;;;;21.73;14.13;;;;;;;;;;5114992;28;20043;-74
2022/10/22 00:44:36;;;;;;;31.13;14.63;;;;;;;;;;5113640;28;20031;-73
2022/10/22 00:47:22;;;;;;;22.48;13.98;;;;;;;;;;5114244;28;20098;-73
2022/10/22 00:50:11;;;;;;;25.90;14.10;;;;;;;;;;5116341;28;20031;-74
2022/10/22 00:52:57;;;;;;;21.88;13.02;;;;;;;;;;5116674;28;20358;-74
2022/10/22 00:55:44;;;;;;;24.88;13.73;;;;;;;;;;5115229;28;20410;-74
2022/10/22 00:58:32;;;;;;;26.45;13.70;;;;;;;;;;5114964;28;20016;-75
2022/10/22 01:01:21;;;;;;;24.95;13.50;;;;;;;;;;5114633;28;20012;-74
2022/10/22 01:04:07;;;;;;;25.60;14.07;;;;;;;;;;5114753;28;20051;-75
2022/10/22 01:06:52;;;;;;;19.55;13.20;;;;;;;;;;5114701;28;20333;-74
2022/10/22 01:09:53;;;;;;;21.35;13.13;;;;;;;;;;5114553;28;20156;-74
2022/10/22 01:12:43;;;;;;;20.52;13.10;;;;;;;;;;5114432;28;20026;-74
2022/10/22 01:15:36;;;;;;;21.95;12.63;;;;;;;;;;5114576;28;20023;-73
2022/10/22 01:18:23;;;;;;;20.75;13.20;;;;;;;;;;5114430;28;20020;-73
2022/10/22 01:21:18;;;;;;;22.60;13.27;;;;;;;;;;5114282;28;20028;-73
2022/10/22 01:24:10;;;;;;;24.30;12.95;;;;;;;;;;5114788;28;20081;-73
2022/10/22 01:26:55;;;;;;;20.60;12.55;;;;;;;;;;5113925;28;20031;-73
2022/10/22 01:29:41;;;;;;;20.25;12.02;;;;;;;;;;5114479;28;20432;-73
2022/10/22 01:32:28;;;;;;;21.02;12.52;;;;;;;;;;5114179;28;20012;-74
2022/10/22 01:35:16;;;;;;;22.25;11.73;;;;;;;;;;5113511;28;20034;-74
2022/10/22 01:38:03;;;;;;;18.73;11.82;;;;;;;;;;5128511;28;20430;-75
2022/10/22 01:40:49;;;;;;;17.48;11.52;;;;;;;;;;5135098;28;20026;-74
2022/10/22 01:43:35;;;;;;;22.92;12.43;;;;;;;;;;5120479;28;20026;-73
2022/10/22 01:46:22;;;;;;;18.58;10.57;;;;;;;;;;5133377;28;20164;-73
2022/10/22 01:49:24;;;;;;;20.27;10.70;;;;;;;;;;5120146;28;20057;-74
2022/10/22 01:52:10;;;;;;;19.05;11.10;;;;;;;;;;5120504;28;20411;-74
2022/10/22 01:55:22;;;;;;;17.60;10.02;;;;;;;;;;5120198;28;20031;-74
2022/10/22 01:58:07;;;;;;;15.98;9.48;;;;;;;;;;5114655;27;20038;-74
2022/10/22 02:00:59;;;;;;;18.13;10.80;;;;;;;;;;5138177;27;20015;-74
2022/10/22 02:03:53;;;;;;;16.67;10.63;;;;;;;;;;5138122;27;20023;-74
2022/10/22 02:06:40;;;;;;;18.65;10.07;;;;;;;;;;5138082;27;20463;-73
2022/10/22 02:09:27;;;;;;;16.50;10.10;;;;;;;;;;5123271;27;20106;-73
2022/10/22 02:12:13;;;;;;;18.90;10.43;;;;;;;;;;5129635;27;20440;-71
2022/10/22 02:15:01;;;;;;;15.68;9.95;;;;;;;;;;5157879;27;20060;-72
2022/10/22 02:17:48;;;;;;;18.83;10.48;;;;;;;;;;5157613;27;20015;-72
2022/10/22 02:20:35;;;;;;;19.85;11.02;;;;;;;;;;5141837;27;20014;-71
2022/10/22 02:23:20;;;;;;;18.27;11.60;;;;;;;;;;5157194;27;20456;-70
2022/10/22 02:26:10;;;;;;;20.75;11.70;;;;;;;;;;5143354;27;20029;-72
2022/10/22 02:29:05;;;;;;;19.85;12.13;;;;;;;;;;5157399;27;20023;-71
2022/10/22 02:31:52;;;;;;;20.83;11.63;;;;;;;;;;5157447;27;20023;-71
2022/10/22 02:34:38;;;;;;;21.58;12.48;;;;;;;;;;5157634;27;20019;-72
2022/10/22 02:37:24;;;;;;;19.33;11.75;;;;;;;;;;5155954;27;20035;-71
2022/10/22 02:40:10;;;;;;;22.00;12.85;;;;;;;;;;5157687;27;20029;-71
2022/10/22 02:42:56;;;;;;;21.52;11.45;;;;;;;;;;5157347;27;20420;-72
2022/10/22 02:45:42;;;;;;;15.45;9.45;;;;;;;;;;5142709;27;20489;-71
2022/10/22 02:48:27;;;;;;;16.85;8.20;;;;;;;;;;5157669;27;20026;-72
2022/10/22 02:51:13;;;;;;;11.00;7.53;;;;;;;;;;5157207;27;20493;-72
2022/10/22 02:53:58;;;;;;;16.67;7.10;;;;;;;;;;5156919;27;20367;-71
2022/10/22 02:56:44;;;;;;;9.80;7.00;;;;;;;;;;5141998;27;20025;-71
2022/10/22 02:59:29;;;;;;;10.75;6.68;;;;;;;;;;5141926;27;20048;-73
2022/10/22 03:02:15;;;;;;;10.52;7.00;;;;;;;;;;5156445;27;20029;-71
2022/10/22 03:05:01;;;;;;;11.35;6.82;;;;;;;;;;5156953;27;20074;-72
2022/10/22 03:07:46;;;;;;;14.23;7.13;;;;;;;;;;5141164;27;20022;-71
2022/10/22 03:10:32;;;;;;;9.43;6.75;;;;;;;;;;5156465;27;20023;-72
2022/10/22 03:13:17;;;;;;;9.70;6.82;;;;;;;;;;5155523;27;20396;-72
2022/10/22 03:16:03;;;;;;;9.98;7.22;;;;;;;;;;5156759;27;20011;-71
2022/10/22 03:18:49;;;;;;;11.73;6.72;;;;;;;;;;5156401;27;20019;-72
2022/10/22 03:21:37;;;;;;;9.50;6.38;;;;;;;;;;5156225;27;20019;-71
2022/10/22 03:24:26;;;;;;;9.82;6.47;;;;;;;;;;5156465;27;20022;-71
2022/10/22 03:27:13;;;;;;;9.38;6.65;;;;;;;;;;5141404;27;20034;-72
2022/10/22 03:29:59;;;;;;;11.10;6.35;;;;;;;;;;5156114;27;20031;-72
2022/10/22 03:32:44;;;;;;;10.15;6.68;;;;;;;;;;5155863;27;20337;-71
2022/10/22 03:35:30;;;;;;;12.68;6.93;;;;;;;;;;5141001;27;20046;-71
2022/10/22 03:38:16;;;;;;;9.77;6.47;;;;;;;;;;5142035;27;20545;-72
2022/10/22 03:41:02;;;;;;;12.27;6.60;;;;;;;;;;5156834;27;20019;-71
2022/10/22 03:43:51;;;;;;;9.63;6.65;;;;;;;;;;5157248;27;20035;-72
2022/10/22 03:46:37;;;;;;;9.48;6.20;;;;;;;;;;5155748;27;20014;-71
2022/10/22 03:49:22;;;;;;;12.05;6.82;;;;;;;;;;5156843;27;20429;-71
2022/10/22 03:52:10;;;;;;;16.90;7.63;;;;;;;;;;5155763;27;20322;-72
2022/10/22 03:54:55;;;;;;;11.50;7.10;;;;;;;;;;5141050;27;20444;-72
2022/10/22 03:57:41;;;;;;;13.38;7.15;;;;;;;;;;5155780;27;20029;-72
2022/10/22 04:00:27;;;;;;;8.93;6.50;;;;;;;;;;5140866;27;20061;-72
2022/10/22 04:03:12;;;;;;;8.60;6.13;;;;;;;;;;5155128;27;20026;-72
2022/10/22 04:06:05;;;;;;;9.48;6.78;;;;;;;;;;5155174;27;20023;-72
2022/10/22 04:08:50;;;;;;;11.30;7.30;;;;;;;;;;5155627;27;20034;-72
2022/10/22 04:11:36;;;;;;;9.68;6.68;;;;;;;;;;5154999;27;20019;-71
2022/10/22 04:14:22;;;;;;;10.18;6.97;;;;;;;;;;5155592;27;20455;-71
2022/10/22 04:17:07;;;;;;;10.60;7.35;;;;;;;;;;5154981;27;20030;-72
2022/10/22 04:19:53;;;;;;;15.82;7.93;;;;;;;;;;5155179;27;20418;-71
2022/10/22 04:22:38;;;;;;;14.13;9.25;;;;;;;;;;5154852;27;20014;-71
2022/10/22 04:25:24;;;;;;;18.85;9.20;;;;;;;;;;5139851;27;20025;-72
2022/10/22 04:28:10;;;;;;;16.15;9.40;;;;;;;;;;5154382;27;20026;-72
2022/10/22 04:30:55;;;;;;;20.40;10.73;;;;;;;;;;5154902;27;20015;-71
2022/10/22 04:33:41;;;;;;;25.08;10.98;;;;;;;;;;5154629;27;20026;-71
2022/10/22 04:36:27;;;;;;;19.35;10.27;;;;;;;;;;5139169;27;20019;-72
2022/10/22 04:39:13;;;;;;;16.45;10.20;;;;;;;;;;5154919;27;20025;-71
2022/10/22 04:41:59;;;;;;;18.05;8.93;;;;;;;;;;5155525;27;20046;-72
2022/10/22 04:44:45;;;;;;;14.60;9.68;;;;;;;;;;5155175;27;20030;-71
2022/10/22 04:47:30;;;;;;;21.27;10.93;;;;;;;;;;5154637;27;20018;-71
2022/10/22 04:50:16;;;;;;;14.20;9.90;;;;;;;;;;5140049;27;20018;-72
2022/10/22 04:53:01;;;;;;;22.98;10.63;;;;;;;;;;5154667;27;20031;-73
2022/10/22 04:55:47;;;;;;;27.30;11.77;;;;;;;;;;5155257;27;20015;-72
2022/10/22 04:58:33;;;;;;;18.85;11.77;;;;;;;;;;5155359;27;20430;-72
2022/10/22 05:01:20;;;;;;;20.10;11.57;;;;;;;;;;5156113;27;20019;-72
2022/10/22 05:04:06;;;;;;;23.58;11.27;;;;;;;;;;5154794;27;20069;-72
2022/10/22 05:06:52;;;;;;;27.45;11.15;;;;;;;;;;5139514;27;20039;-71
2022/10/22 05:09:38;;;;;;;22.20;11.32;;;;;;;;;;5155274;27;20026;-73
2022/10/22 05:12:24;;;;;;;29.17;12.13;;;;;;;;;;5154492;27;20390;-71
2022/10/22 05:15:10;;;;;;;20.77;11.90;;;;;;;;;;5154775;27;20018;-72
2022/10/22 05:17:56;;;;;;;25.42;14.25;;;;;;;;;;5154883;27;20042;-72
2022/10/22 05:20:42;;;;;;;28.10;13.95;;;;;;;;;;5160556;27;20053;-72
2022/10/22 05:23:27;;;;;;;27.17;14.35;;;;;;;;;;5141578;27;20479;-72
2022/10/22 05:26:14;;;;;;;32.25;15.00;;;;;;;;;;5154279;27;20034;-72
2022/10/22 05:29:00;;;;;;;27.83;14.25;;;;;;;;;;5154467;27;20349;-71
2022/10/22 05:31:45;;;;;;;21.92;11.88;;;;;;;;;;5139744;27;20082;-73
2022/10/22 05:34:32;;;;;;;29.80;13.73;;;;;;;;;;5158566;27;20019;-72
2022/10/22 05:37:17;;;;;;;28.02;14.32;;;;;;;;;;5159457;27;20095;-75
2022/10/22 05:40:03;;;;;;;22.65;11.98;;;;;;;;;;5159429;27;20035;-73
2022/10/22 05:42:49;;;;;;;18.65;10.70;;;;;;;;;;5158153;27;20051;-72
2022/10/22 05:45:35;;;;;;;24.15;12.75;;;;;;;;;;5158079;27;20021;-72
2022/10/22 05:48:21;;;;;;;25.95;12.93;;;;;;;;;;5157882;27;20079;-71
2022/10/22 05:51:11;;;;;;;23.65;11.82;;;;;;;;;;5158676;27;20155;-72
2022/10/22 05:53:58;;;;;;;19.25;10.98;;;;;;;;;;5159666;27;20079;-72
2022/10/22 05:56:44;;;;;;;16.67;10.68;;;;;;;;;;5158817;27;20086;-71
2022/10/22 05:59:29;;;;;;;17.80;10.63;;;;;;;;;;5158591;27;20067;-72
2022/10/22 06:02:15;;;;;;;19.05;10.07;;;;;;;;;;5158727;27;20064;-72
2022/10/22 06:05:00;;;;;;;17.17;10.38;;;;;;;;;;5147491;27;20019;-70
2022/10/22 06:07:46;;;;;;;16.30;10.48;;;;;;;;;;5171822;27;20018;-71
2022/10/22 06:10:32;;;;;;;18.15;9.98;;;;;;;;;;5175300;27;20026;-72
2022/10/22 06:13:17;;;;;;;19.65;10.60;;;;;;;;;;5158840;27;20050;-70
2022/10/22 06:16:03;;;;;;;24.55;10.25;;;;;;;;;;5146832;27;20018;-73
2022/10/22 06:18:48;;;;;;;21.48;10.80;;;;;;;;;;5144901;27;20071;-73
2022/10/22 06:21:34;;;;;;;23.30;11.65;;;;;;;;;;5158731;27;20364;-72
2022/10/22 06:24:19;;;;;;;23.23;11.57;;;;;;;;;;5158410;27;20098;-73
2022/10/22 06:27:05;;;;;;;23.98;11.65;;;;;;;;;;5157991;27;20019;-72
2022/10/22 06:29:51;;;;;;;21.35;10.32;;;;;;;;;;5157954;27;20014;-72
2022/10/22 06:32:36;;;;;;;20.75;11.13;;;;;;;;;;5157684;27;20030;-73
2022/10/22 06:35:22;;;;;;;17.90;10.68;;;;;;;;;;5160512;27;20044;-72
2022/10/22 06:38:07;;;;;;;20.42;10.85;;;;;;;;;;5155427;27;20042;-73
2022/10/22 06:40:53;;;;;;;23.88;11.27;;;;;;;;;;5157954;27;20097;-72
2022/10/22 06:43:39;;;;;;;19.88;10.77;;;;;;;;;;5157040;27;20453;-71
2022/10/22 06:46:25;;;;;;;17.45;10.40;;;;;;;;;;5157331;27;20018;-71
2022/10/22 06:49:13;;;;;;;15.32;9.52;;;;;;;;;;5156886;27;20083;-74
2022/10/22 06:51:58;;;;;;;17.05;9.27;;;;;;;;;;5157325;27;20061;-73
2022/10/22 06:54:44;;;;;;;14.68;9.00;;;;;;;;;;5156556;27;20038;-73
2022/10/22 06:57:30;;;;;;;16.63;8.68;;;;;;;;;;5157036;27;20053;-73
2022/10/22 07:00:15;;;;;;;15.63;8.27;;;;;;;;;;5141300;27;20066;-70
2022/10/22 07:03:01;;;;;;;10.90;6.93;;;;;;;;;;5157192;27;20018;-73
2022/10/22 07:05:47;;;;;;;12.93;7.45;;;;;;;;;;5156391;27;20030;-73
2022/10/22 07:08:33;;;;;;;12.70;8.02;;;;;;;;;;5141182;27;20023;-74
2022/10/22 07:11:20;;;;;;;12.80;7.80;;;;;;;;;;5156748;27;20104;-73
2022/10/22 07:14:05;;;;;;;14.80;7.88;;;;;;;;;;5143334;27;20093;-77
2022/10/22 07:16:51;;;;;;;13.63;7.93;;;;;;;;;;5157287;27;20064;-77
2022/10/22 07:19:36;;;;;;;12.38;7.30;;;;;;;;;;5156320;27;20021;-76
2022/10/22 07:22:22;;;;;;;18.73;7.95;;;;;;;;;;5156502;27;20067;-77
2022/10/22 07:25:08;;;;;;;13.05;8.07;;;;;;;;;;5141697;27;20019;-76
2022/10/22 07:27:53;;;;;;;17.77;6.82;;;;;;;;;;5155210;27;20436;-77
2022/10/22 07:30:39;;;;;;;14.63;7.47;;;;;;;;;;5156584;27;20023;-76
2022/10/22 07:33:25;;;;;;;11.20;8.05;;;;;;;;;;5155851;27;20019;-76
2022/10/22 07:36:16;;;;;;;13.93;7.80;;;;;;;;;;5156036;27;20440;-75
2022/10/22 07:39:02;;;;;;;12.73;7.38;;;;;;;;;;5141883;27;20444;-76
2022/10/22 07:41:48;;;;;;;11.40;7.60;;;;;;;;;;5156156;27;20015;-75
2022/10/22 07:44:33;;;;;;;17.77;7.45;;;;;;;;;;5156840;27;20432;-76
2022/10/22 07:47:19;;;;;;;17.95;7.82;;;;;;;;;;5155673;27;20482;-75
2022/10/22 07:50:06;;;;;;;16.25;7.55;;;;;;;;;;5141114;27;20035;-75
2022/10/22 07:52:51;;;;;;;15.98;7.28;;;;;;;;;;5156491;27;20027;-75
2022/10/22 07:55:37;;;;;;;17.92;6.93;;;;;;;;;;5155538;27;20451;-75
2022/10/22 07:58:23;;;;;;;16.92;7.75;;;;;;;;;;5155250;27;20102;-76
2022/10/22 08:01:08;;;;;;;13.65;7.40;;;;;;;;;;5140330;27;20015;-78
2022/10/22 08:03:54;;;;;;;11.00;7.43;;;;;;;;;;5155851;27;20015;-77
2022/10/22 08:06:40;;;;;;;11.35;7.70;;;;;;;;;;5155519;27;20127;-75
2022/10/22 08:09:25;;;;;;;10.60;7.00;;;;;;;;;;5156623;27;20465;-76
2022/10/22 08:12:11;;;;;;;11.90;7.75;;;;;;;;;;5155139;27;20394;-77
2022/10/22 08:14:56;;;;;;;10.57;8.00;;;;;;;;;;5140877;27;20015;-77
2022/10/22 08:17:42;;;;;;;9.93;7.15;;;;;;;;;;5155818;27;20019;-76
2022/10/22 08:20:28;;;;;;;10.65;7.20;;;;;;;;;;5155517;27;20097;-77
2022/10/22 08:23:13;;;;;;;9.73;6.90;;;;;;;;;;5140153;27;20026;-77
2022/10/22 08:25:59;;;;;;;11.32;7.40;;;;;;;;;;5154897;27;20057;-75
2022/10/22 08:28:44;;;;;;;8.20;6.30;;;;;;;;;;5155012;27;20101;-77
2022/10/22 08:31:30;;;;;;;11.45;6.72;;;;;;;;;;5155447;27;20019;-76
2022/10/22 08:34:16;;;;;;;12.75;7.22;;;;;;;;;;5154356;27;20015;-76
2022/10/22 08:37:01;;;;;;;8.63;6.47;;;;;;;;;;5155242;27;20042;-75
2022/10/22 08:39:47;;;;;;;10.73;6.72;;;;;;;;;;5140784;27;20462;-71
2022/10/22 08:42:33;;;;;;;9.70;7.03;;;;;;;;;;5154347;27;20343;-76
2022/10/22 08:45:37;;;;;;;16.13;8.85;;;;;;;;;;5155733;27;20018;-76
2022/10/22 08:48:25;;;;;;;13.85;8.02;;;;;;;;;;5141117;27;20026;-76
2022/10/22 08:51:13;;;;;;;13.98;7.53;;;;;;;;;;5155705;27;20026;-76
2022/10/22 08:53:59;;;;;;;11.30;7.25;;;;;;;;;;5154545;27;20037;-74
2022/10/22 08:56:51;;;;;;;13.00;8.90;;;;;;;;;;5154956;27;20025;-75
2022/10/22 08:59:43;;;;;;;14.15;8.55;;;;;;;;;;5141096;27;20022;-75
2022/10/22 09:02:32;;;;;;;14.18;9.00;;;;;;;;;;5154812;27;20450;-75
2022/10/22 09:05:22;;;;;;;15.18;9.23;;;;;;;;;;5139420;27;20050;-75
2022/10/22 09:08:12;;;;;;;17.65;9.70;;;;;;;;;;5156808;27;20069;-75
2022/10/22 09:11:04;;;;;;;17.33;10.05;;;;;;;;;;5158652;27;20416;-75
2022/10/22 09:13:53;;;;;;;13.18;9.23;;;;;;;;;;5159522;27;20019;-76
2022/10/22 09:16:58;;;;;;;16.08;9.02;;;;;;;;;;5144029;27;20019;-75
2022/10/22 09:19:46;;;;;;;18.23;9.40;;;;;;;;;;5144150;27;20030;-76
2022/10/22 09:22:32;;;;;;;15.55;9.35;;;;;;;;;;5158980;27;20075;-76
2022/10/22 09:25:19;;;;;;;11.45;8.05;;;;;;;;;;5144346;27;20027;-75
2022/10/22 09:28:05;;;;;;;12.70;7.65;;;;;;;;;;5164510;27;20087;-76
2022/10/22 09:30:50;;;;;;;9.27;7.22;;;;;;;;;;5158403;27;20086;-76
2022/10/22 09:33:36;;;;;;;14.25;7.97;;;;;;;;;;5143966;27;20026;-76
2022/10/22 09:36:22;;;;;;;11.05;7.53;;;;;;;;;;5155872;27;20007;-75
2022/10/22 09:39:37;;;;;;;12.30;8.10;;;;;;;;;;5117402;28;20034;-76
2022/10/22 09:42:23;;;;;;;13.98;8.35;;;;;;;;;;5112907;28;20416;-75
2022/10/22 09:45:17;;;;;;;15.32;8.20;;;;;;;;;;5134154;27;20023;-75
2022/10/22 09:48:10;;;;;;;15.55;8.02;;;;;;;;;;5119388;28;20110;-76
2022/10/22 09:51:13;;;;;;;12.55;8.52;;;;;;;;;;5124594;28;20085;-76
2022/10/22 09:54:00;;;;;;;13.43;8.10;;;;;;;;;;5126568;28;20084;-75
2022/10/22 09:56:49;;;;;;;11.68;7.43;;;;;;;;;;5126183;28;20353;-75
2022/10/22 09:59:40;;;;;;;12.40;7.90;;;;;;;;;;5110551;28;20079;-74
2022/10/22 10:02:29;;;;;;;10.55;8.02;;;;;;;;;;5123653;28;20026;-75
2022/10/22 10:05:19;;;;;;;12.60;8.70;;;;;;;;;;5121674;28;20023;-76
2022/10/22 10:08:10;;;;;;;11.77;8.00;;;;;;;;;;5127364;28;20019;-77
2022/10/22 10:11:09;;;;;;;17.42;8.25;;;;;;;;;;5123916;28;20023;-76
2022/10/22 10:14:02;;;;;;;12.80;8.13;;;;;;;;;;5125512;28;20024;-75
2022/10/22 10:17:17;;;;;;;14.23;8.15;;;;;;;;;;5126083;28;20043;-76
2022/10/22 10:20:37;;;;;;;11.18;7.68;;;;;;;;;;5114704;28;20106;-76
2022/10/22 10:23:31;;;;;;;14.07;8.30;;;;;;;;;;5099334;28;20084;-73
2022/10/22 10:26:22;;;;;;;15.75;8.48;;;;;;;;;;5121856;28;20358;-75
2022/10/22 10:29:11;;;;;;;11.30;8.20;;;;;;;;;;5124356;28;20019;-75
2022/10/22 10:32:17;;;;;;;14.98;8.48;;;;;;;;;;5122716;28;20020;-75
2022/10/22 10:35:14;;;;;;;11.60;7.75;;;;;;;;;;5126488;28;20088;-74
2022/10/22 10:37:59;;;;;;;19.67;9.18;;;;;;;;;;5124448;27;20076;-74
2022/10/22 10:40:56;;;;;;;11.77;7.85;;;;;;;;;;5142952;27;20034;-73
2022/10/22 10:44:05;;;;;;;13.35;8.52;;;;;;;;;;5144781;27;20035;-76
2022/10/22 10:47:03;;;;;;;14.18;7.93;;;;;;;;;;5109656;27;20113;-73
2022/10/22 10:49:51;;;;;;;12.88;7.50;;;;;;;;;;5145123;27;20019;-74
2022/10/22 10:52:43;;;;;;;11.98;7.47;;;;;;;;;;5138000;27;20026;-73
2022/10/22 10:55:30;;;;;;;10.48;7.22;;;;;;;;;;5137324;27;20141;-72
2022/10/22 10:58:15;;;;;;;15.27;7.13;;;;;;;;;;5136929;27;20360;-73
2022/10/22 11:01:09;;;;;;;13.35;7.22;;;;;;;;;;5137204;27;20050;-74
2022/10/22 11:04:01;;;;;;;11.65;7.50;;;;;;;;;;5137429;27;20042;-73
2022/10/22 11:06:47;;;;;;;10.48;7.50;;;;;;;;;;5142384;27;20019;-73
2022/10/22 11:09:36;;;;;;;21.13;7.95;;;;;;;;;;5138731;27;20018;-73
2022/10/22 11:12:27;;;;;;;12.52;7.60;;;;;;;;;;5137407;27;20038;-73
2022/10/22 11:15:13;;;;;;;9.63;7.57;;;;;;;;;;5138447;27;20019;-73
2022/10/22 11:18:02;;;;;;;12.93;8.10;;;;;;;;;;5138115;27;20050;-73
2022/10/22 11:20:50;;;;;;;10.90;7.88;;;;;;;;;;5137726;27;20444;-73
2022/10/22 11:23:43;;;;;;;11.07;7.95;;;;;;;;;;5137321;27;20019;-74
2022/10/22 11:26:29;;;;;;;11.00;7.55;;;;;;;;;;5137155;27;20034;-71
2022/10/22 11:29:26;;;;;;;10.10;7.40;;;;;;;;;;5136495;27;20034;-71
2022/10/22 11:32:14;;;;;;;11.05;7.13;;;;;;;;;;5121859;27;20085;-71
2022/10/22 11:35:01;;;;;;;11.35;7.50;;;;;;;;;;5136709;27;20058;-71
2022/10/22 11:37:47;;;;;;;10.82;7.78;;;;;;;;;;5136417;27;20456;-71
2022/10/22 11:40:36;;;;;;;12.55;7.30;;;;;;;;;;5136193;27;20332;-71
2022/10/22 11:43:29;;;;;;;11.93;7.60;;;;;;;;;;5121610;27;20019;-72
2022/10/22 11:46:15;;;;;;;12.15;7.70;;;;;;;;;;5135858;27;20019;-71
2022/10/22 11:49:21;;;;;;;10.05;7.32;;;;;;;;;;5136992;27;20041;-71
2022/10/22 11:52:25;;;;;;;9.88;6.95;;;;;;;;;;5118316;27;20130;-69
2022/10/22 11:55:30;;;;;;;10.98;6.93;;;;;;;;;;5135925;27;20029;-70
2022/10/22 11:58:28;;;;;;;12.30;6.80;;;;;;;;;;5135736;27;20405;-70
2022/10/22 12:01:14;;;;;;;8.80;6.43;;;;;;;;;;5136432;27;20019;-71
2022/10/22 12:04:20;;;;;;;12.25;7.20;;;;;;;;;;5135710;27;20026;-72
2022/10/22 12:07:26;;;;;;;13.73;7.80;;;;;;;;;;5136496;27;20019;-71
2022/10/22 12:10:17;;;;;;;13.65;7.30;;;;;;;;;;5135857;27;20026;-72
2022/10/22 12:13:10;;;;;;;9.52;6.88;;;;;;;;;;5121744;27;20079;-70
2022/10/22 12:16:01;;;;;;;9.90;7.55;;;;;;;;;;5135589;27;20444;-70
2022/10/22 12:18:47;;;;;;;8.02;6.38;;;;;;;;;;5136300;27;20176;-71
2022/10/22 12:21:33;;;;;;;10.75;7.05;;;;;;;;;;5135802;27;20046;-71
2022/10/22 12:24:21;;;;;;;20.20;7.53;;;;;;;;;;5135532;27;20033;-72
2022/10/22 12:27:17;;;;;;;12.25;7.57;;;;;;;;;;5135885;27;20471;-71
2022/10/22 12:30:15;;;;;;;12.35;7.72;;;;;;;;;;5135835;27;20031;-70
2022/10/22 12:33:03;;;;;;;24.50;8.98;;;;;;;;;;5136202;27;20164;-71
2022/10/22 12:35:51;;;;;;;10.73;7.15;;;;;;;;;;5121815;27;20027;-71
2022/10/22 12:38:39;;;;;;;11.57;7.30;;;;;;;;;;5134355;27;20051;-71
2022/10/22 12:41:35;;;;;;;9.25;6.97;;;;;;;;;;5120044;27;20041;-71
2022/10/22 12:44:21;;;;;;;16.27;7.75;;;;;;;;;;5135132;27;20027;-70
2022/10/22 12:47:07;;;;;;;10.05;6.93;;;;;;;;;;5121004;28;20080;-68
2022/10/22 12:49:52;;;;;;;11.98;6.82;;;;;;;;;;5135564;27;20026;-66
2022/10/22 12:52:38;;;;;;;10.32;7.07;;;;;;;;;;5134507;28;20023;-68
2022/10/22 12:55:27;;;;;;;11.68;7.10;;;;;;;;;;5134989;28;20061;-68
2022/10/22 12:58:16;;;;;;;10.13;7.30;;;;;;;;;;5135851;28;20283;-66
2022/10/22 13:01:01;;;;;;;13.52;7.22;;;;;;;;;;5135047;28;20015;-68
2022/10/22 13:03:49;;;;;;;10.32;7.00;;;;;;;;;;5135040;28;20012;-68
2022/10/22 13:06:35;;;;;;;16.27;7.82;;;;;;;;;;5135956;28;20031;-70
2022/10/22 13:09:22;;;;;;;12.82;6.75;;;;;;;;;;5135381;28;20088;-69
2022/10/22 13:12:15;;;;;;;8.98;6.68;;;;;;;;;;5135413;28;20019;-69
2022/10/22 13:15:20;;;;;;;12.40;7.43;;;;;;;;;;5135327;28;20019;-68
2022/10/22 13:18:27;;;;;;;9.65;7.00;;;;;;;;;;5134748;28;20026;-69
2022/10/22 13:21:27;;;;;;;10.65;7.13;;;;;;;;;;5134834;28;20030;-69
2022/10/22 13:24:23;;;;;;;11.57;7.30;;;;;;;;;;5135763;28;20051;-69
2022/10/22 13:27:09;;;;;;;11.90;7.60;;;;;;;;;;5134656;28;20345;-69
2022/10/22 13:29:55;;;;;;;10.02;7.10;;;;;;;;;;5135199;28;20026;-69
2022/10/22 13:32:40;;;;;;;13.85;7.60;;;;;;;;;;5134883;28;20023;-69
2022/10/22 13:35:28;;;;;;;13.55;7.75;;;;;;;;;;5134526;28;20038;-69
2022/10/22 13:38:17;;;;;;;18.35;8.35;;;;;;;;;;5134904;28;20050;-69
2022/10/22 13:41:03;;;;;;;10.35;7.43;;;;;;;;;;5120528;28;20023;-69
2022/10/22 13:43:49;;;;;;;10.98;8.10;;;;;;;;;;5135147;28;20112;-70
2022/10/22 13:46:41;;;;;;;11.27;7.22;;;;;;;;;;5134258;28;20058;-70
2022/10/22 13:49:26;;;;;;;14.70;7.38;;;;;;;;;;5134995;28;20026;-69
2022/10/22 13:52:17;;;;;;;12.20;7.50;;;;;;;;;;5135647;28;20087;-69
2022/10/22 13:55:12;;;;;;;10.43;7.45;;;;;;;;;;5123225;27;20023;-69
2022/10/22 13:58:11;;;;;;;10.40;7.35;;;;;;;;;;5123130;27;20015;-71
2022/10/22 14:00:58;;;;;;;11.60;8.30;;;;;;;;;;5139037;27;20019;-71
2022/10/22 14:03:44;;;;;;;14.68;8.70;;;;;;;;;;5122793;27;20035;-72
2022/10/22 14:06:30;;;;;;;16.13;9.52;;;;;;;;;;5138344;27;20415;-73
2022/10/22 14:09:16;;;;;;;14.50;8.98;;;;;;;;;;5138868;27;20465;-73
2022/10/22 14:12:07;;;;;;;12.90;8.98;;;;;;;;;;5145460;27;20030;-71
2022/10/22 14:14:53;;;;;;;16.42;8.95;;;;;;;;;;5139758;27;20027;-72
2022/10/22 14:17:41;;;;;;;12.95;8.95;;;;;;;;;;5137379;27;20039;-71
2022/10/22 14:20:28;;;;;;;17.35;9.63;;;;;;;;;;5138374;27;20034;-73
2022/10/22 14:23:17;;;;;;;20.17;9.95;;;;;;;;;;5138227;27;20113;-71
2022/10/22 14:26:03;;;;;;;14.80;9.38;;;;;;;;;;5138225;27;20364;-72
2022/10/22 14:28:49;;;;;;;20.25;9.85;;;;;;;;;;5138110;27;20019;-72
2022/10/22 14:31:36;;;;;;;14.68;9.32;;;;;;;;;;5138412;27;20030;-71
2022/10/22 14:34:21;;;;;;;19.05;9.65;;;;;;;;;;5137970;27;20019;-71
2022/10/22 14:37:13;;;;;;;18.48;10.45;;;;;;;;;;5136824;27;20108;-71
2022/10/22 14:40:01;;;;;;;19.80;10.50;;;;;;;;;;5141439;27;20365;-71
2022/10/22 14:42:47;;;;;;;14.45;9.98;;;;;;;;;;5151988;27;20513;-72
2022/10/22 14:45:33;;;;;;;18.73;10.15;;;;;;;;;;5138969;27;20039;-73
2022/10/22 14:48:19;;;;;;;19.08;11.00;;;;;;;;;;5137173;27;20019;-72
2022/10/22 14:51:04;;;;;;;16.00;10.32;;;;;;;;;;5136499;27;20027;-72
2022/10/22 14:53:50;;;;;;;18.92;10.98;;;;;;;;;;5136678;27;20019;-73
2022/10/22 14:56:36;;;;;;;15.73;11.02;;;;;;;;;;5122781;27;20015;-73
2022/10/22 14:59:23;;;;;;;20.63;11.10;;;;;;;;;;5136365;27;20019;-73
2022/10/22 15:02:12;;;;;;;21.63;12.43;;;;;;;;;;5136603;27;20031;-73
2022/10/22 15:04:57;;;;;;;25.88;13.65;;;;;;;;;;5135078;27;20023;-73
2022/10/22 15:07:44;;;;;;;34.67;18.58;;;;;;;;;;5137034;27;20015;-73
2022/10/22 15:10:29;;;;;;;26.65;15.45;;;;;;;;;;5135946;27;20031;-73
2022/10/22 15:13:15;;;;;;;23.52;13.90;;;;;;;;;;5136386;27;20045;-72
2022/10/22 15:16:04;;;;;;;23.42;13.50;;;;;;;;;;5135585;27;20056;-72
2022/10/22 15:18:51;;;;;;;25.98;15.80;;;;;;;;;;5135536;27;20094;-71
2022/10/22 15:21:37;;;;;;;30.27;15.63;;;;;;;;;;5136221;27;20419;-73
2022/10/22 15:24:22;;;;;;;25.98;16.08;;;;;;;;;;5137102;27;20034;-73
2022/10/22 15:27:08;;;;;;;31.67;16.48;;;;;;;;;;5135610;27;20113;-71
2022/10/22 15:29:55;;;;;;;36.33;16.75;;;;;;;;;;5136121;27;20337;-72
2022/10/22 15:32:41;;;;;;;27.85;16.50;;;;;;;;;;5136250;27;20019;-73
2022/10/22 15:35:27;;;;;;;25.35;15.55;;;;;;;;;;5137349;27;20019;-73
2022/10/22 15:38:13;;;;;;;26.23;14.82;;;;;;;;;;5121575;27;20043;-73
2022/10/22 15:40:59;;;;;;;27.92;15.55;;;;;;;;;;5135720;27;20015;-72
2022/10/22 15:43:46;;;;;;;25.58;14.95;;;;;;;;;;5121090;27;20015;-73
2022/10/22 15:46:32;;;;;;;28.17;15.45;;;;;;;;;;5136797;27;20104;-72
2022/10/22 15:49:17;;;;;;;23.80;16.52;;;;;;;;;;5135182;27;20031;-73
2022/10/22 15:52:04;;;;;;;31.88;16.38;;;;;;;;;;5136186;27;20031;-72
2022/10/22 15:54:50;;;;;;;31.02;16.23;;;;;;;;;;5135264;27;20423;-73
2022/10/22 15:57:36;;;;;;;29.30;16.27;;;;;;;;;;5134987;27;20449;-72
2022/10/22 16:00:21;;;;;;;30.63;16.58;;;;;;;;;;5120153;27;20015;-72
2022/10/22 16:03:07;;;;;;;31.25;16.20;;;;;;;;;;5120663;27;20011;-72
2022/10/22 16:05:53;;;;;;;35.45;18.55;;;;;;;;;;5134933;27;20407;-72
2022/10/22 16:08:38;;;;;;;36.13;18.40;;;;;;;;;;5134372;27;20019;-73
2022/10/22 16:11:24;;;;;;;30.17;17.77;;;;;;;;;;5136168;27;20046;-71
2022/10/22 16:14:11;;;;;;;31.27;19.02;;;;;;;;;;5134556;27;20349;-71
2022/10/22 16:16:58;;;;;;;34.05;20.10;;;;;;;;;;5134050;27;20016;-71
2022/10/22 16:19:44;;;;;;;36.53;19.90;;;;;;;;;;5134576;27;20102;-71
2022/10/22 16:22:29;;;;;;;35.25;19.23;;;;;;;;;;5134149;27;20098;-70
2022/10/22 16:25:15;;;;;;;35.00;20.38;;;;;;;;;;5135384;27;20023;-70
2022/10/22 16:28:00;;;;;;;42.40;20.25;;;;;;;;;;5135029;27;20019;-70